createdAt,value
2023-05-13T00:00:24.766Z,12.54
2023-05-13T00:01:24.746Z,12.54
2023-05-13T00:02:24.772Z,12.56
2023-05-13T00:03:24.761Z,12.54
2023-05-13T00:04:24.711Z,12.59
2023-05-13T00:05:24.688Z,12.54
2023-05-13T00:06:24.737Z,12.52
2023-05-13T00:07:24.681Z,12.56
2023-05-13T00:08:24.675Z,12.57
2023-05-13T00:09:24.650Z,12.54
2023-05-13T00:10:24.657Z,12.56
2023-05-13T00:11:24.609Z,12.57
2023-05-13T00:12:24.612Z,12.56
2023-05-13T00:13:24.590Z,12.56
2023-05-13T00:14:24.570Z,12.56
2023-05-13T00:15:24.568Z,12.48
2023-05-13T00:16:23.627Z,12.45
2023-05-13T00:17:24.581Z,12.45
2023-05-13T00:18:24.588Z,12.49
2023-05-13T00:19:24.501Z,12.52
2023-05-13T00:20:24.477Z,12.51
2023-05-13T00:21:24.469Z,12.52
2023-05-13T00:22:23.526Z,12.49
2023-05-13T00:23:24.457Z,12.45
2023-05-13T00:24:24.435Z,12.44
2023-05-13T00:25:24.435Z,12.38
2023-05-13T00:26:24.425Z,12.31
2023-05-13T00:27:24.435Z,12.29
2023-05-13T00:28:24.390Z,12.23
2023-05-13T00:29:24.356Z,12.26
2023-05-13T00:30:24.361Z,12.23
2023-05-13T00:31:24.412Z,12.19
2023-05-13T00:32:24.367Z,12.13
2023-05-13T00:33:24.320Z,12.16
2023-05-13T00:34:24.308Z,12.15
2023-05-13T00:35:24.287Z,12.11
2023-05-13T00:36:24.275Z,12.11
2023-05-13T00:37:24.278Z,12.09
2023-05-13T00:38:24.245Z,12.05
2023-05-13T00:39:24.234Z,12.08
2023-05-13T00:40:24.439Z,12.09
2023-05-13T00:41:24.204Z,12.08
2023-05-13T00:42:24.215Z,12.08
2023-05-13T00:43:24.182Z,12.06
2023-05-13T00:44:24.171Z,12.01
2023-05-13T00:45:24.157Z,11.97
2023-05-13T00:46:24.222Z,11.94
2023-05-13T00:47:24.175Z,11.87
2023-05-13T00:48:24.126Z,11.80
2023-05-13T00:49:24.102Z,11.78
2023-05-13T00:50:24.369Z,11.72
2023-05-13T00:51:24.084Z,11.68
2023-05-13T00:52:24.077Z,11.64
2023-05-13T00:53:24.047Z,11.64
2023-05-13T00:54:24.029Z,11.61
2023-05-13T00:55:24.025Z,11.56
2023-05-13T00:56:24.017Z,11.56
2023-05-13T00:57:23.996Z,11.57
2023-05-13T00:58:23.976Z,11.54
2023-05-13T00:59:23.973Z,11.50
2023-05-13T01:00:23.945Z,11.49
2023-05-13T01:01:24.008Z,11.47
2023-05-13T01:02:23.963Z,11.47
2023-05-13T01:03:23.975Z,11.46
2023-05-13T01:04:23.881Z,11.39
2023-05-13T01:05:23.881Z,11.41
2023-05-13T01:06:23.882Z,11.41
2023-05-13T01:07:23.862Z,11.43
2023-05-13T01:08:23.830Z,11.43
2023-05-13T01:09:23.828Z,11.46
2023-05-13T01:10:23.959Z,11.44
2023-05-13T01:11:23.827Z,11.46
2023-05-13T01:12:23.789Z,11.47
2023-05-13T01:13:23.805Z,11.46
2023-05-13T01:14:23.759Z,11.49
2023-05-13T01:15:23.763Z,11.47
2023-05-13T01:16:23.780Z,11.49
2023-05-13T01:17:23.742Z,11.47
2023-05-13T01:18:23.722Z,11.49
2023-05-13T01:19:23.688Z,11.44
2023-05-13T01:20:24.160Z,11.46
2023-05-13T01:21:23.653Z,11.47
2023-05-13T01:22:23.643Z,11.50
2023-05-13T01:23:23.624Z,11.54
2023-05-13T01:24:23.651Z,11.57
2023-05-13T01:25:23.612Z,11.56
2023-05-13T01:26:23.580Z,11.57
2023-05-13T01:27:23.576Z,11.54
2023-05-13T01:28:23.571Z,11.53
2023-05-13T01:29:23.564Z,11.56
2023-05-13T01:30:23.867Z,11.59
2023-05-13T01:31:23.587Z,11.56
2023-05-13T01:32:23.538Z,11.59
2023-05-13T01:33:23.001Z,11.54
2023-05-13T01:34:23.477Z,11.54
2023-05-13T01:35:23.477Z,11.59
2023-05-13T01:36:23.463Z,11.56
2023-05-13T01:37:23.454Z,11.57
2023-05-13T01:38:23.431Z,11.56
2023-05-13T01:39:23.432Z,11.52
2023-05-13T01:40:32.343Z,11.54
2023-05-13T01:41:24.440Z,11.52
2023-05-13T01:42:23.367Z,11.50
2023-05-13T01:43:23.373Z,11.52
2023-05-13T01:44:23.363Z,11.47
2023-05-13T01:45:23.328Z,11.44
2023-05-13T01:46:23.349Z,11.44
2023-05-13T01:47:23.366Z,11.43
2023-05-13T01:48:23.289Z,11.43
2023-05-13T01:49:23.291Z,11.39
2023-05-13T01:50:23.548Z,11.38
2023-05-13T01:51:23.259Z,11.34
2023-05-13T01:52:23.252Z,11.32
2023-05-13T01:53:23.253Z,11.31
2023-05-13T01:54:23.261Z,11.29
2023-05-13T01:55:21.890Z,11.25
2023-05-13T01:56:23.190Z,11.20
2023-05-13T01:57:23.200Z,11.20
2023-05-13T01:58:23.178Z,11.14
2023-05-13T01:59:23.430Z,11.11
2023-05-13T02:00:23.239Z,11.09
2023-05-13T02:01:22.707Z,11.07
2023-05-13T02:02:23.925Z,11.02
2023-05-13T02:03:23.688Z,10.99
2023-05-13T02:04:21.835Z,10.94
2023-05-13T02:05:23.080Z,10.88
2023-05-13T02:06:23.077Z,10.80
2023-05-13T02:07:23.029Z,10.73
2023-05-13T02:08:23.029Z,10.68
2023-05-13T02:09:23.006Z,10.60
2023-05-13T02:10:23.179Z,10.55
2023-05-13T02:11:22.977Z,10.44
2023-05-13T02:12:22.965Z,10.37
2023-05-13T02:13:22.968Z,10.33
2023-05-13T02:14:22.931Z,10.28
2023-05-13T02:15:22.913Z,10.25
2023-05-13T02:16:22.981Z,10.22
2023-05-13T02:17:23.045Z,10.19
2023-05-13T02:18:22.919Z,10.14
2023-05-13T02:19:22.890Z,10.09
2023-05-13T02:20:23.173Z,10.04
2023-05-13T02:21:22.850Z,10.01
2023-05-13T02:22:22.833Z,10.00
2023-05-13T02:23:22.816Z,9.93
2023-05-13T02:24:22.799Z,9.89
2023-05-13T02:25:22.789Z,9.89
2023-05-13T02:26:22.783Z,9.85
2023-05-13T02:27:22.760Z,9.81
2023-05-13T02:28:21.389Z,9.78
2023-05-13T02:29:22.734Z,9.71
2023-05-13T02:30:22.946Z,9.71
2023-05-13T02:31:22.726Z,9.68
2023-05-13T02:32:22.696Z,9.67
2023-05-13T02:33:22.681Z,9.64
2023-05-13T02:34:22.674Z,9.58
2023-05-13T02:35:22.674Z,9.57
2023-05-13T02:36:21.647Z,9.53
2023-05-13T02:37:22.632Z,9.50
2023-05-13T02:38:21.673Z,9.49
2023-05-13T02:39:22.616Z,9.48
2023-05-13T02:40:22.972Z,9.48
2023-05-13T02:41:22.584Z,9.45
2023-05-13T02:42:22.572Z,9.43
2023-05-13T02:43:22.543Z,9.42
2023-05-13T02:44:22.520Z,9.40
2023-05-13T02:45:22.521Z,9.35
2023-05-13T02:46:22.644Z,9.32
2023-05-13T02:47:22.516Z,9.32
2023-05-13T02:48:22.477Z,9.30
2023-05-13T02:49:22.451Z,9.28
2023-05-13T02:50:22.682Z,9.20
2023-05-13T02:51:22.445Z,9.10
2023-05-13T02:52:22.410Z,9.12
2023-05-13T02:53:22.404Z,9.10
2023-05-13T02:54:22.401Z,9.09
2023-05-13T02:55:22.417Z,9.06
2023-05-13T02:56:22.380Z,9.04
2023-05-13T02:57:22.343Z,9.02
2023-05-13T02:58:22.341Z,8.99
2023-05-13T02:59:22.350Z,8.94
2023-05-13T03:00:22.536Z,8.93
2023-05-13T03:01:22.356Z,8.90
2023-05-13T03:02:22.349Z,8.88
2023-05-13T03:03:22.410Z,8.88
2023-05-13T03:04:22.270Z,8.86
2023-05-13T03:05:22.248Z,8.83
2023-05-13T03:06:22.252Z,8.78
2023-05-13T03:07:22.211Z,8.78
2023-05-13T03:08:22.207Z,8.73
2023-05-13T03:09:22.195Z,8.69
2023-05-13T03:10:22.349Z,8.69
2023-05-13T03:11:22.164Z,8.62
2023-05-13T03:12:22.161Z,8.57
2023-05-13T03:13:22.136Z,8.55
2023-05-13T03:14:22.116Z,8.58
2023-05-13T03:15:22.131Z,8.60
2023-05-13T03:16:22.130Z,8.57
2023-05-13T03:17:22.144Z,8.57
2023-05-13T03:18:22.125Z,8.54
2023-05-13T03:19:22.051Z,8.54
2023-05-13T03:20:22.268Z,8.51
2023-05-13T03:21:22.033Z,8.51
2023-05-13T03:22:22.042Z,8.50
2023-05-13T03:23:22.000Z,8.47
2023-05-13T03:24:21.990Z,8.47
2023-05-13T03:25:21.991Z,8.42
2023-05-13T03:26:21.968Z,8.44
2023-05-13T03:27:20.976Z,8.40
2023-05-13T03:28:21.946Z,8.40
2023-05-13T03:29:20.980Z,8.39
2023-05-13T03:30:22.174Z,8.37
2023-05-13T03:31:21.409Z,8.35
2023-05-13T03:32:21.890Z,8.32
2023-05-13T03:33:21.865Z,8.26
2023-05-13T03:34:21.877Z,8.28
2023-05-13T03:35:21.012Z,8.26
2023-05-13T03:36:21.829Z,8.22
2023-05-13T03:37:21.806Z,8.22
2023-05-13T03:38:21.783Z,8.20
2023-05-13T03:39:21.792Z,8.15
2023-05-13T03:40:21.985Z,8.14
2023-05-13T03:41:21.753Z,8.10
2023-05-13T03:42:21.754Z,8.04
2023-05-13T03:43:21.757Z,8.03
2023-05-13T03:44:21.736Z,8.00
2023-05-13T03:45:21.702Z,8.02
2023-05-13T03:46:21.737Z,8.02
2023-05-13T03:47:21.694Z,8.02
2023-05-13T03:48:20.303Z,8.00
2023-05-13T03:49:21.679Z,7.99
2023-05-13T03:50:21.798Z,8.00
2023-05-13T03:51:21.624Z,8.02
2023-05-13T03:52:21.613Z,7.99
2023-05-13T03:53:21.620Z,7.97
2023-05-13T03:54:21.591Z,7.96
2023-05-13T03:55:21.558Z,7.97
2023-05-13T03:56:21.588Z,7.99
2023-05-13T03:57:21.556Z,7.97
2023-05-13T03:58:21.546Z,7.96
2023-05-13T03:59:21.515Z,7.99
2023-05-13T04:00:21.716Z,8.00
2023-05-13T04:01:21.495Z,7.99
2023-05-13T04:02:21.562Z,8.00
2023-05-13T04:03:21.554Z,8.02
2023-05-13T04:04:20.000Z,7.97
2023-05-13T04:05:21.475Z,7.99
2023-05-13T04:06:21.423Z,8.02
2023-05-13T04:07:21.408Z,8.02
2023-05-13T04:08:21.394Z,8.02
2023-05-13T04:09:21.373Z,8.03
2023-05-13T04:10:21.602Z,8.04
2023-05-13T04:11:21.363Z,8.03
2023-05-13T04:12:21.364Z,8.00
2023-05-13T04:13:21.329Z,8.02
2023-05-13T04:14:21.315Z,8.03
2023-05-13T04:15:21.294Z,8.04
2023-05-13T04:16:21.351Z,8.03
2023-05-13T04:17:21.339Z,8.02
2023-05-13T04:18:21.259Z,8.00
2023-05-13T04:19:21.246Z,8.03
2023-05-13T04:20:21.367Z,8.00
2023-05-13T04:21:21.242Z,8.00
2023-05-13T04:22:21.210Z,7.97
2023-05-13T04:23:21.188Z,7.99
2023-05-13T04:24:21.182Z,8.00
2023-05-13T04:25:21.171Z,7.99
2023-05-13T04:26:21.175Z,7.97
2023-05-13T04:27:21.137Z,8.00
2023-05-13T04:28:21.126Z,7.99
2023-05-13T04:29:21.128Z,7.99
2023-05-13T04:30:21.233Z,8.00
2023-05-13T04:31:21.112Z,8.00
2023-05-13T04:32:21.105Z,8.03
2023-05-13T04:33:21.073Z,8.07
2023-05-13T04:34:21.040Z,8.08
2023-05-13T04:35:21.053Z,8.08
2023-05-13T04:36:21.015Z,8.10
2023-05-13T04:37:21.005Z,8.10
2023-05-13T04:38:21.003Z,8.12
2023-05-13T04:39:20.982Z,8.15
2023-05-13T04:40:21.205Z,8.15
2023-05-13T04:41:20.939Z,8.20
2023-05-13T04:42:20.951Z,8.20
2023-05-13T04:43:20.924Z,8.21
2023-05-13T04:44:19.739Z,8.21
2023-05-13T04:45:20.908Z,8.18
2023-05-13T04:46:20.966Z,8.18
2023-05-13T04:47:20.893Z,8.28
2023-05-13T04:48:20.889Z,8.44
2023-05-13T04:49:20.858Z,8.68
2023-05-13T04:50:20.965Z,8.93
2023-05-13T04:51:20.814Z,9.15
2023-05-13T04:52:20.802Z,9.39
2023-05-13T04:53:20.796Z,9.64
2023-05-13T04:54:20.797Z,9.86
2023-05-13T04:55:20.274Z,10.06
2023-05-13T04:56:19.819Z,10.24
2023-05-13T04:57:20.735Z,10.43
2023-05-13T04:58:20.726Z,10.62
2023-05-13T04:59:20.730Z,10.84
2023-05-13T05:00:20.961Z,11.03
2023-05-13T05:01:20.721Z,11.25
2023-05-13T05:02:20.672Z,11.44
2023-05-13T05:03:20.693Z,11.59
2023-05-13T05:04:20.659Z,11.78
2023-05-13T05:05:20.633Z,12.04
2023-05-13T05:06:20.617Z,12.26
2023-05-13T05:07:20.592Z,12.42
2023-05-13T05:08:20.595Z,12.63
2023-05-13T05:09:20.611Z,12.75
2023-05-13T05:10:20.811Z,12.99
2023-05-13T05:11:20.560Z,13.22
2023-05-13T05:12:20.532Z,13.38
2023-05-13T05:13:20.528Z,13.56
2023-05-13T05:14:20.501Z,13.74
2023-05-13T05:15:20.485Z,14.02
2023-05-13T05:16:20.475Z,14.28
2023-05-13T05:17:20.490Z,14.49
2023-05-13T05:18:20.533Z,14.74
2023-05-13T05:19:20.489Z,14.83
2023-05-13T05:20:20.554Z,15.08
2023-05-13T05:21:20.418Z,15.17
2023-05-13T05:22:20.395Z,15.03
2023-05-13T05:23:20.400Z,14.52
2023-05-13T05:24:20.380Z,13.95
2023-05-13T05:25:20.347Z,13.51
2023-05-13T05:26:20.338Z,13.02
2023-05-13T05:27:20.353Z,12.62
2023-05-13T05:28:20.325Z,12.31
2023-05-13T05:29:20.303Z,12.11
2023-05-13T05:30:20.507Z,11.78
2023-05-13T05:31:20.292Z,11.64
2023-05-13T05:32:20.310Z,11.44
2023-05-13T05:33:20.257Z,11.32
2023-05-13T05:34:20.227Z,11.29
2023-05-13T05:35:20.221Z,11.25
2023-05-13T05:36:20.203Z,11.16
2023-05-13T05:37:20.194Z,11.07
2023-05-13T05:38:20.193Z,10.99
2023-05-13T05:39:20.166Z,10.98
2023-05-13T05:40:20.397Z,10.95
2023-05-13T05:41:20.131Z,10.99
2023-05-13T05:42:20.131Z,10.98
2023-05-13T05:43:20.130Z,10.86
2023-05-13T05:44:20.103Z,10.80
2023-05-13T05:45:19.129Z,10.77
2023-05-13T05:46:20.104Z,10.80
2023-05-13T05:47:19.140Z,10.83
2023-05-13T05:48:20.046Z,10.84
2023-05-13T05:49:20.065Z,10.84
2023-05-13T05:50:20.337Z,10.94
2023-05-13T05:51:20.017Z,10.89
2023-05-13T05:52:20.017Z,10.98
2023-05-13T05:53:19.993Z,11.06
2023-05-13T05:54:19.958Z,11.13
2023-05-13T05:55:19.942Z,11.16
2023-05-13T05:56:19.933Z,11.27
2023-05-13T05:57:19.920Z,11.38
2023-05-13T05:58:19.892Z,11.50
2023-05-13T05:59:19.912Z,11.59
2023-05-13T06:00:19.090Z,11.72
2023-05-13T06:01:18.912Z,11.82
2023-05-13T06:02:19.867Z,11.90
2023-05-13T06:03:19.890Z,12.04
2023-05-13T06:04:19.844Z,12.15
2023-05-13T06:05:19.806Z,12.21
2023-05-13T06:06:19.804Z,12.27
2023-05-13T06:07:19.788Z,12.37
2023-05-13T06:08:19.756Z,12.45
2023-05-13T06:09:19.753Z,12.49
2023-05-13T06:10:19.876Z,12.52
2023-05-13T06:11:19.742Z,12.59
2023-05-13T06:12:19.716Z,12.63
2023-05-13T06:13:19.711Z,12.71
2023-05-13T06:14:19.692Z,12.77
2023-05-13T06:15:19.687Z,12.87
2023-05-13T06:16:19.701Z,12.95
2023-05-13T06:17:19.651Z,12.95
2023-05-13T06:18:19.623Z,13.02
2023-05-13T06:19:19.625Z,13.07
2023-05-13T06:20:19.912Z,13.17
2023-05-13T06:21:19.590Z,13.25
2023-05-13T06:22:19.574Z,13.29
2023-05-13T06:23:19.554Z,13.46
2023-05-13T06:24:19.558Z,13.77
2023-05-13T06:25:19.543Z,14.42
2023-05-13T06:26:19.526Z,15.23
2023-05-13T06:27:19.516Z,16.15
2023-05-13T06:28:19.512Z,16.81
2023-05-13T06:29:19.483Z,17.64
2023-05-13T06:30:19.662Z,17.97
2023-05-13T06:31:19.514Z,18.22
2023-05-13T06:32:19.433Z,18.29
2023-05-13T06:33:19.459Z,18.67
2023-05-13T06:34:19.409Z,18.95
2023-05-13T06:35:19.403Z,19.42
2023-05-13T06:36:19.379Z,19.43
2023-05-13T06:37:19.358Z,19.63
2023-05-13T06:38:19.348Z,19.97
2023-05-13T06:39:19.346Z,19.66
2023-05-13T06:40:19.471Z,19.86
2023-05-13T06:41:19.318Z,19.80
2023-05-13T06:42:19.304Z,20.38
2023-05-13T06:43:19.276Z,20.81
2023-05-13T06:44:19.279Z,20.87
2023-05-13T06:45:19.256Z,21.17
2023-05-13T06:46:19.279Z,21.53
2023-05-13T06:47:20.214Z,21.46
2023-05-13T06:48:19.229Z,21.38
2023-05-13T06:49:19.207Z,21.21
2023-05-13T06:50:19.369Z,20.91
2023-05-13T06:51:19.174Z,20.72
2023-05-13T06:52:19.166Z,20.81
2023-05-13T06:53:19.156Z,21.13
2023-05-13T06:54:19.152Z,21.08
2023-05-13T06:55:19.207Z,20.74
2023-05-13T06:56:19.117Z,20.95
2023-05-13T06:57:19.406Z,20.91
2023-05-13T06:58:19.086Z,20.30
2023-05-13T06:59:19.155Z,20.81
2023-05-13T07:00:19.197Z,20.93
2023-05-13T07:01:19.126Z,21.41
2023-05-13T07:02:19.018Z,21.75
2023-05-13T07:03:19.142Z,21.82
2023-05-13T07:04:19.128Z,21.81
2023-05-13T07:05:18.987Z,21.76
2023-05-13T07:06:18.542Z,21.92
2023-05-13T07:07:18.953Z,21.50
2023-05-13T07:08:19.010Z,21.36
2023-05-13T07:09:18.915Z,21.61
2023-05-13T07:10:18.943Z,21.94
2023-05-13T07:11:19.448Z,21.61
2023-05-13T07:12:18.911Z,21.38
2023-05-13T07:13:18.576Z,21.51
2023-05-13T07:14:17.597Z,21.74
2023-05-13T07:15:18.928Z,22.31
2023-05-13T07:16:18.836Z,22.54
2023-05-13T07:17:18.874Z,22.31
2023-05-13T07:18:17.609Z,22.53
2023-05-13T07:19:18.837Z,21.98
2023-05-13T07:20:18.806Z,22.01
2023-05-13T07:21:18.814Z,22.31
2023-05-13T07:22:18.754Z,21.95
2023-05-13T07:23:18.727Z,22.04
2023-05-13T07:24:18.714Z,21.72
2023-05-13T07:25:18.717Z,21.50
2023-05-13T07:26:18.687Z,22.02
2023-05-13T07:27:18.687Z,22.31
2023-05-13T07:28:18.665Z,22.57
2023-05-13T07:29:18.659Z,22.35
2023-05-13T07:30:18.643Z,22.29
2023-05-13T07:31:18.753Z,22.82
2023-05-13T07:32:18.838Z,23.17
2023-05-13T07:33:18.603Z,23.24
2023-05-13T07:34:18.587Z,23.19
2023-05-13T07:35:18.657Z,22.93
2023-05-13T07:36:18.564Z,22.67
2023-05-13T07:37:18.535Z,22.92
2023-05-13T07:38:18.537Z,22.46
2023-05-13T07:39:18.510Z,22.65
2023-05-13T07:40:18.520Z,23.04
2023-05-13T07:41:18.512Z,23.04
2023-05-13T07:42:18.487Z,22.92
2023-05-13T07:43:18.469Z,22.83
2023-05-13T07:44:18.472Z,22.92
2023-05-13T07:45:18.448Z,22.41
2023-05-13T07:46:18.434Z,22.44
2023-05-13T07:47:18.454Z,22.41
2023-05-13T07:48:18.405Z,22.10
2023-05-13T07:49:18.407Z,21.90
2023-05-13T07:50:18.389Z,21.81
2023-05-13T07:51:18.402Z,22.07
2023-05-13T07:52:18.353Z,22.20
2023-05-13T07:53:19.747Z,21.94
2023-05-13T07:54:18.330Z,22.01
2023-05-13T07:55:18.326Z,22.19
2023-05-13T07:56:18.301Z,22.57
2023-05-13T07:57:18.292Z,22.96
2023-05-13T07:58:18.259Z,22.41
2023-05-13T07:59:18.258Z,22.31
2023-05-13T08:00:18.247Z,22.39
2023-05-13T08:01:18.224Z,22.67
2023-05-13T08:02:18.244Z,22.64
2023-05-13T08:03:18.242Z,22.65
2023-05-13T08:04:18.375Z,23.42
2023-05-13T08:05:18.189Z,23.94
2023-05-13T08:06:17.203Z,23.46
2023-05-13T08:07:18.147Z,23.08
2023-05-13T08:08:18.139Z,23.50
2023-05-13T08:09:18.141Z,23.76
2023-05-13T08:10:18.125Z,23.45
2023-05-13T08:11:18.093Z,23.38
2023-05-13T08:12:18.076Z,23.52
2023-05-13T08:13:18.084Z,23.86
2023-05-13T08:14:16.736Z,24.37
2023-05-13T08:15:18.043Z,24.47
2023-05-13T08:16:18.050Z,24.35
2023-05-13T08:17:18.017Z,24.24
2023-05-13T08:18:18.012Z,23.95
2023-05-13T08:19:18.019Z,24.12
2023-05-13T08:20:17.976Z,23.82
2023-05-13T08:21:17.953Z,23.95
2023-05-13T08:22:17.947Z,23.64
2023-05-13T08:23:17.954Z,23.57
2023-05-13T08:24:17.924Z,23.61
2023-05-13T08:25:17.904Z,23.24
2023-05-13T08:26:17.897Z,23.07
2023-05-13T08:27:17.871Z,23.77
2023-05-13T08:28:17.879Z,23.70
2023-05-13T08:29:17.862Z,23.89
2023-05-13T08:30:17.843Z,24.39
2023-05-13T08:31:17.858Z,24.17
2023-05-13T08:32:17.893Z,24.31
2023-05-13T08:33:17.812Z,24.45
2023-05-13T08:34:17.789Z,24.08
2023-05-13T08:35:17.784Z,24.14
2023-05-13T08:36:17.768Z,23.39
2023-05-13T08:37:17.761Z,22.97
2023-05-13T08:38:17.743Z,23.46
2023-05-13T08:39:17.727Z,24.10
2023-05-13T08:40:17.718Z,24.16
2023-05-13T08:41:18.962Z,24.49
2023-05-13T08:42:17.707Z,24.82
2023-05-13T08:43:17.176Z,24.98
2023-05-13T08:44:17.655Z,24.60
2023-05-13T08:45:17.652Z,24.12
2023-05-13T08:46:17.669Z,23.71
2023-05-13T08:47:17.705Z,23.43
2023-05-13T08:48:17.683Z,24.24
2023-05-13T08:49:17.597Z,24.27
2023-05-13T08:50:17.584Z,24.13
2023-05-13T08:51:17.566Z,24.42
2023-05-13T08:52:17.570Z,24.14
2023-05-13T08:53:17.547Z,24.44
2023-05-13T08:54:17.550Z,24.79
2023-05-13T08:55:17.527Z,24.80
2023-05-13T08:56:17.536Z,24.50
2023-05-13T08:57:17.514Z,24.91
2023-05-13T08:58:17.487Z,24.73
2023-05-13T08:59:17.481Z,24.82
2023-05-13T09:00:19.993Z,25.20
2023-05-13T09:01:17.477Z,25.44
2023-05-13T09:02:17.435Z,25.39
2023-05-13T09:03:17.414Z,25.17
2023-05-13T09:04:17.404Z,24.90
2023-05-13T09:05:17.414Z,24.90
2023-05-13T09:06:17.387Z,24.82
2023-05-13T09:07:17.368Z,25.12
2023-05-13T09:08:17.355Z,25.01
2023-05-13T09:09:17.337Z,24.32
2023-05-13T09:10:17.329Z,24.44
2023-05-13T09:11:17.342Z,24.35
2023-05-13T09:12:17.298Z,24.56
2023-05-13T09:13:17.292Z,24.59
2023-05-13T09:14:17.277Z,24.64
2023-05-13T09:15:17.291Z,24.29
2023-05-13T09:16:17.281Z,24.88
2023-05-13T09:17:17.255Z,25.00
2023-05-13T09:18:18.868Z,25.13
2023-05-13T09:19:17.352Z,24.98
2023-05-13T09:20:17.204Z,25.00
2023-05-13T09:21:17.188Z,25.61
2023-05-13T09:22:17.171Z,25.56
2023-05-13T09:23:16.027Z,25.75
2023-05-13T09:24:17.141Z,25.13
2023-05-13T09:25:17.158Z,25.16
2023-05-13T09:26:17.113Z,25.59
2023-05-13T09:27:17.103Z,25.61
2023-05-13T09:28:17.108Z,25.82
2023-05-13T09:29:17.110Z,26.08
2023-05-13T09:30:17.092Z,26.32
2023-05-13T09:31:17.106Z,26.40
2023-05-13T09:32:17.043Z,26.80
2023-05-13T09:33:17.107Z,27.17
2023-05-13T09:34:17.047Z,26.96
2023-05-13T09:35:16.050Z,26.21
2023-05-13T09:36:16.049Z,25.68
2023-05-13T09:37:16.970Z,25.52
2023-05-13T09:38:16.972Z,25.22
2023-05-13T09:39:15.562Z,25.57
2023-05-13T09:40:16.950Z,25.16
2023-05-13T09:41:15.984Z,25.19
2023-05-13T09:42:15.990Z,24.87
2023-05-13T09:43:16.929Z,25.37
2023-05-13T09:44:16.921Z,25.56
2023-05-13T09:45:16.891Z,25.49
2023-05-13T09:46:16.894Z,25.30
2023-05-13T09:47:16.912Z,25.32
2023-05-13T09:48:16.868Z,25.07
2023-05-13T09:49:16.839Z,24.94
2023-05-13T09:50:16.822Z,25.42
2023-05-13T09:51:16.822Z,25.79
2023-05-13T09:52:16.789Z,25.42
2023-05-13T09:53:16.791Z,25.54
2023-05-13T09:54:16.779Z,25.56
2023-05-13T09:55:16.759Z,26.27
2023-05-13T09:56:16.742Z,25.61
2023-05-13T09:57:16.773Z,25.72
2023-05-13T09:58:16.744Z,25.84
2023-05-13T09:59:16.738Z,25.15
2023-05-13T10:00:28.940Z,24.73
2023-05-13T10:01:17.742Z,24.76
2023-05-13T10:02:16.693Z,23.87
2023-05-13T10:03:16.657Z,24.41
2023-05-13T10:04:16.736Z,24.92
2023-05-13T10:05:16.646Z,25.34
2023-05-13T10:06:16.611Z,25.34
2023-05-13T10:07:16.632Z,25.67
2023-05-13T10:08:16.601Z,26.02
2023-05-13T10:09:16.578Z,26.05
2023-05-13T10:10:16.138Z,26.29
2023-05-13T10:11:16.564Z,26.72
2023-05-13T10:12:16.558Z,26.65
2023-05-13T10:13:16.592Z,26.36
2023-05-13T10:14:16.519Z,26.31
2023-05-13T10:15:16.520Z,26.24
2023-05-13T10:16:16.538Z,25.98
2023-05-13T10:17:16.495Z,24.35
2023-05-13T10:18:16.517Z,24.82
2023-05-13T10:19:16.568Z,25.65
2023-05-13T10:20:16.441Z,25.64
2023-05-13T10:21:16.453Z,25.71
2023-05-13T10:22:16.414Z,25.80
2023-05-13T10:23:16.427Z,26.15
2023-05-13T10:24:16.382Z,26.74
2023-05-13T10:25:16.383Z,25.52
2023-05-13T10:26:16.372Z,25.99
2023-05-13T10:27:16.342Z,25.89
2023-05-13T10:28:16.324Z,26.37
2023-05-13T10:29:16.336Z,27.13
2023-05-13T10:30:16.344Z,26.94
2023-05-13T10:31:16.347Z,26.61
2023-05-13T10:32:16.331Z,26.49
2023-05-13T10:33:16.370Z,26.31
2023-05-13T10:34:16.270Z,26.31
2023-05-13T10:35:16.257Z,25.68
2023-05-13T10:36:16.311Z,25.52
2023-05-13T10:37:16.223Z,25.38
2023-05-13T10:38:16.220Z,25.75
2023-05-13T10:39:16.219Z,25.71
2023-05-13T10:40:16.384Z,26.08
2023-05-13T10:41:16.171Z,26.54
2023-05-13T10:42:16.166Z,26.74
2023-05-13T10:43:16.145Z,26.49
2023-05-13T10:44:16.202Z,26.43
2023-05-13T10:45:16.136Z,26.52
2023-05-13T10:46:16.121Z,26.58
2023-05-13T10:47:15.622Z,26.65
2023-05-13T10:48:16.258Z,26.18
2023-05-13T10:49:16.069Z,25.34
2023-05-13T10:50:16.071Z,25.24
2023-05-13T10:51:16.049Z,25.64
2023-05-13T10:52:16.027Z,25.52
2023-05-13T10:53:16.024Z,23.98
2023-05-13T10:54:16.016Z,23.34
2023-05-13T10:55:16.000Z,23.79
2023-05-13T10:56:15.486Z,24.71
2023-05-13T10:57:17.733Z,23.70
2023-05-13T10:58:15.959Z,23.17
2023-05-13T10:59:15.959Z,22.75
2023-05-13T11:00:16.166Z,23.52
2023-05-13T11:01:16.009Z,23.29
2023-05-13T11:02:15.431Z,22.57
2023-05-13T11:03:16.016Z,23.01
2023-05-13T11:04:15.911Z,23.77
2023-05-13T11:05:15.904Z,23.68
2023-05-13T11:06:15.887Z,22.75
2023-05-13T11:07:15.846Z,22.65
2023-05-13T11:08:14.884Z,23.35
2023-05-13T11:09:14.906Z,23.14
2023-05-13T11:10:15.876Z,22.93
2023-05-13T11:11:15.787Z,23.42
2023-05-13T11:12:15.790Z,24.22
2023-05-13T11:13:15.752Z,24.75
2023-05-13T11:14:15.786Z,24.94
2023-05-13T11:15:15.750Z,25.17
2023-05-13T11:16:15.785Z,24.90
2023-05-13T11:17:15.715Z,25.67
2023-05-13T11:18:15.718Z,26.47
2023-05-13T11:19:15.793Z,26.87
2023-05-13T11:20:15.676Z,26.28
2023-05-13T11:21:15.657Z,25.84
2023-05-13T11:22:15.640Z,25.99
2023-05-13T11:23:15.647Z,26.36
2023-05-13T11:24:15.644Z,26.64
2023-05-13T11:25:15.626Z,26.80
2023-05-13T11:26:15.595Z,26.12
2023-05-13T11:27:15.578Z,25.25
2023-05-13T11:28:15.589Z,25.56
2023-05-13T11:29:15.554Z,26.05
2023-05-13T11:30:15.532Z,26.11
2023-05-13T11:31:15.536Z,25.38
2023-05-13T11:32:15.507Z,24.68
2023-05-13T11:33:15.507Z,24.91
2023-05-13T11:34:15.484Z,25.35
2023-05-13T11:35:15.485Z,26.06
2023-05-13T11:36:15.465Z,26.28
2023-05-13T11:37:15.459Z,26.29
2023-05-13T11:38:15.456Z,25.82
2023-05-13T11:39:15.420Z,24.23
2023-05-13T11:40:15.759Z,23.77
2023-05-13T11:41:15.112Z,23.52
2023-05-13T11:42:16.443Z,23.52
2023-05-13T11:43:15.404Z,23.19
2023-05-13T11:44:15.375Z,22.93
2023-05-13T11:45:15.365Z,22.65
2023-05-13T11:46:15.391Z,22.56
2023-05-13T11:47:15.330Z,22.28
2023-05-13T11:48:15.315Z,22.10
2023-05-13T11:49:15.289Z,21.98
2023-05-13T11:50:15.295Z,21.85
2023-05-13T11:51:17.333Z,21.45
2023-05-13T11:52:15.284Z,21.24
2023-05-13T11:53:15.253Z,21.21
2023-05-13T11:54:15.219Z,21.11
2023-05-13T11:55:15.216Z,20.84
2023-05-13T11:56:15.211Z,20.62
2023-05-13T11:57:15.147Z,20.54
2023-05-13T11:58:15.198Z,20.49
2023-05-13T11:59:15.155Z,20.35
2023-05-13T12:00:15.144Z,20.46
2023-05-13T12:01:15.136Z,20.51
2023-05-13T12:02:14.295Z,20.69
2023-05-13T12:03:15.157Z,20.74
2023-05-13T12:04:15.097Z,20.84
2023-05-13T12:05:15.181Z,20.87
2023-05-13T12:06:15.084Z,20.93
2023-05-13T12:07:14.110Z,21.05
2023-05-13T12:08:14.117Z,21.17
2023-05-13T12:09:15.042Z,21.19
2023-05-13T12:10:15.026Z,21.19
2023-05-13T12:11:15.004Z,21.32
2023-05-13T12:12:15.007Z,21.44
2023-05-13T12:13:14.990Z,21.56
2023-05-13T12:14:14.977Z,21.71
2023-05-13T12:15:14.985Z,21.82
2023-05-13T12:16:14.971Z,21.90
2023-05-13T12:17:14.935Z,21.94
2023-05-13T12:18:15.004Z,22.41
2023-05-13T12:19:15.103Z,22.67
2023-05-13T12:20:14.927Z,22.78
2023-05-13T12:21:14.883Z,22.90
2023-05-13T12:22:14.864Z,22.93
2023-05-13T12:23:14.866Z,23.31
2023-05-13T12:24:14.875Z,23.45
2023-05-13T12:25:14.853Z,23.27
2023-05-13T12:26:14.836Z,23.29
2023-05-13T12:27:14.817Z,23.87
2023-05-13T12:28:14.828Z,23.86
2023-05-13T12:29:14.834Z,23.68
2023-05-13T12:30:14.557Z,24.13
2023-05-13T12:31:14.831Z,24.10
2023-05-13T12:32:14.792Z,23.77
2023-05-13T12:33:14.763Z,24.77
2023-05-13T12:34:14.735Z,24.83
2023-05-13T12:35:15.203Z,24.98
2023-05-13T12:36:14.725Z,25.38
2023-05-13T12:37:14.681Z,25.61
2023-05-13T12:38:14.651Z,25.74
2023-05-13T12:39:14.637Z,24.64
2023-05-13T12:40:14.623Z,25.00
2023-05-13T12:41:14.600Z,24.69
2023-05-13T12:42:14.602Z,25.59
2023-05-13T12:43:14.575Z,25.86
2023-05-13T12:44:14.559Z,26.01
2023-05-13T12:45:14.553Z,26.32
2023-05-13T12:46:14.584Z,26.52
2023-05-13T12:47:14.519Z,25.64
2023-05-13T12:48:14.555Z,25.57
2023-05-13T12:49:14.498Z,25.38
2023-05-13T12:50:14.487Z,25.47
2023-05-13T12:51:14.462Z,25.98
2023-05-13T12:52:14.453Z,26.21
2023-05-13T12:53:13.518Z,25.87
2023-05-13T12:54:14.445Z,25.84
2023-05-13T12:55:14.424Z,25.35
2023-05-13T12:56:14.402Z,25.54
2023-05-13T12:57:14.376Z,25.30